sensor_id;sensor_type;location;lat;lon;timestamp;P1;durP1;ratioP1;P2;durP2;ratioP2
16804;SDS011;8520;50.102;20.010;2023-12-28T00:00:29;56.80;;;50.90;;
16804;SDS011;8520;50.102;20.010;2023-12-28T00:02:57;54.33;;;48.77;;
16804;SDS011;8520;50.102;20.010;2023-12-28T00:05:27;54.57;;;48.97;;
16804;SDS011;8520;50.102;20.010;2023-12-28T00:07:54;53.60;;;48.00;;
16804;SDS011;8520;50.102;20.010;2023-12-28T00:10:25;53.53;;;48.20;;
16804;SDS011;8520;50.102;20.010;2023-12-28T00:12:53;53.67;;;48.17;;
16804;SDS011;8520;50.102;20.010;2023-12-28T00:15:22;54.80;;;49.20;;
16804;SDS011;8520;50.102;20.010;2023-12-28T00:17:50;51.93;;;46.87;;
16804;SDS011;8520;50.102;20.010;2023-12-28T00:20:18;52.60;;;47.07;;
16804;SDS011;8520;50.102;20.010;2023-12-28T00:22:47;51.57;;;46.03;;
16804;SDS011;8520;50.102;20.010;2023-12-28T00:25:15;53.23;;;47.80;;
16804;SDS011;8520;50.102;20.010;2023-12-28T00:27:43;51.93;;;46.60;;
16804;SDS011;8520;50.102;20.010;2023-12-28T00:30:12;53.23;;;47.70;;
16804;SDS011;8520;50.102;20.010;2023-12-28T00:32:42;53.23;;;47.90;;
16804;SDS011;8520;50.102;20.010;2023-12-28T00:35:12;51.17;;;46.13;;
16804;SDS011;8520;50.102;20.010;2023-12-28T00:37:40;52.80;;;47.40;;
16804;SDS011;8520;50.102;20.010;2023-12-28T00:40:12;52.03;;;46.43;;
16804;SDS011;8520;50.102;20.010;2023-12-28T00:42:40;53.53;;;48.03;;
16804;SDS011;8520;50.102;20.010;2023-12-28T00:45:08;54.50;;;48.90;;
16804;SDS011;8520;50.102;20.010;2023-12-28T00:47:37;53.37;;;47.67;;
16804;SDS011;8520;50.102;20.010;2023-12-28T00:50:05;54.87;;;48.90;;
16804;SDS011;8520;50.102;20.010;2023-12-28T00:52:34;53.10;;;47.50;;
16804;SDS011;8520;50.102;20.010;2023-12-28T00:55:02;53.37;;;47.97;;
16804;SDS011;8520;50.102;20.010;2023-12-28T00:57:31;53.77;;;48.00;;
16804;SDS011;8520;50.102;20.010;2023-12-28T01:00:00;52.47;;;47.03;;
16804;SDS011;8520;50.102;20.010;2023-12-28T01:02:28;51.50;;;46.20;;
16804;SDS011;8520;50.102;20.010;2023-12-28T01:04:56;51.80;;;46.30;;
16804;SDS011;8520;50.102;20.010;2023-12-28T01:07:24;52.77;;;47.17;;
16804;SDS011;8520;50.102;20.010;2023-12-28T01:09:52;51.50;;;46.20;;
16804;SDS011;8520;50.102;20.010;2023-12-28T01:12:20;50.13;;;44.73;;
16804;SDS011;8520;50.102;20.010;2023-12-28T01:14:49;50.17;;;44.90;;
16804;SDS011;8520;50.102;20.010;2023-12-28T01:17:17;50.80;;;45.47;;
16804;SDS011;8520;50.102;20.010;2023-12-28T01:19:46;48.27;;;43.57;;
16804;SDS011;8520;50.102;20.010;2023-12-28T01:22:14;48.70;;;43.77;;
16804;SDS011;8520;50.102;20.010;2023-12-28T01:24:42;49.70;;;44.47;;
16804;SDS011;8520;50.102;20.010;2023-12-28T01:27:13;49.03;;;44.33;;
16804;SDS011;8520;50.102;20.010;2023-12-28T01:29:41;48.33;;;43.73;;
16804;SDS011;8520;50.102;20.010;2023-12-28T01:32:10;49.37;;;44.37;;
16804;SDS011;8520;50.102;20.010;2023-12-28T01:34:39;51.60;;;46.27;;
16804;SDS011;8520;50.102;20.010;2023-12-28T01:37:08;52.67;;;47.07;;
16804;SDS011;8520;50.102;20.010;2023-12-28T01:39:35;51.00;;;45.63;;
16804;SDS011;8520;50.102;20.010;2023-12-28T01:42:04;51.50;;;46.30;;
16804;SDS011;8520;50.102;20.010;2023-12-28T01:44:32;52.07;;;46.83;;
16804;SDS011;8520;50.102;20.010;2023-12-28T01:47:00;51.63;;;46.47;;
16804;SDS011;8520;50.102;20.010;2023-12-28T01:49:29;52.60;;;47.30;;
16804;SDS011;8520;50.102;20.010;2023-12-28T01:51:58;52.73;;;47.20;;
16804;SDS011;8520;50.102;20.010;2023-12-28T01:54:27;53.50;;;48.13;;
16804;SDS011;8520;50.102;20.010;2023-12-28T01:56:56;52.83;;;47.43;;
16804;SDS011;8520;50.102;20.010;2023-12-28T01:59:24;54.40;;;49.03;;
16804;SDS011;8520;50.102;20.010;2023-12-28T02:01:52;54.30;;;49.00;;
16804;SDS011;8520;50.102;20.010;2023-12-28T02:04:20;53.60;;;48.20;;
16804;SDS011;8520;50.102;20.010;2023-12-28T02:06:56;54.23;;;48.73;;
16804;SDS011;8520;50.102;20.010;2023-12-28T02:09:24;55.43;;;49.93;;
16804;SDS011;8520;50.102;20.010;2023-12-28T02:11:53;55.10;;;49.57;;
16804;SDS011;8520;50.102;20.010;2023-12-28T02:14:21;53.60;;;48.40;;
16804;SDS011;8520;50.102;20.010;2023-12-28T02:16:53;54.93;;;49.53;;
16804;SDS011;8520;50.102;20.010;2023-12-28T02:19:25;54.93;;;49.63;;
16804;SDS011;8520;50.102;20.010;2023-12-28T02:21:53;54.50;;;49.30;;
16804;SDS011;8520;50.102;20.010;2023-12-28T02:24:24;55.20;;;49.80;;
16804;SDS011;8520;50.102;20.010;2023-12-28T02:26:54;54.63;;;49.30;;
16804;SDS011;8520;50.102;20.010;2023-12-28T02:29:22;55.03;;;49.60;;
16804;SDS011;8520;50.102;20.010;2023-12-28T02:31:51;54.97;;;49.67;;
16804;SDS011;8520;50.102;20.010;2023-12-28T02:34:22;54.27;;;48.90;;
16804;SDS011;8520;50.102;20.010;2023-12-28T02:36:51;54.10;;;48.90;;
16804;SDS011;8520;50.102;20.010;2023-12-28T02:39:20;55.27;;;49.77;;
16804;SDS011;8520;50.102;20.010;2023-12-28T02:41:48;53.70;;;48.43;;
16804;SDS011;8520;50.102;20.010;2023-12-28T02:44:17;54.37;;;49.17;;
16804;SDS011;8520;50.102;20.010;2023-12-28T02:46:45;55.37;;;50.10;;
16804;SDS011;8520;50.102;20.010;2023-12-28T02:49:13;54.90;;;49.43;;
16804;SDS011;8520;50.102;20.010;2023-12-28T02:51:42;55.43;;;50.07;;
16804;SDS011;8520;50.102;20.010;2023-12-28T02:54:10;55.53;;;50.23;;
16804;SDS011;8520;50.102;20.010;2023-12-28T02:56:39;55.43;;;50.27;;
16804;SDS011;8520;50.102;20.010;2023-12-28T02:59:07;57.00;;;51.33;;
16804;SDS011;8520;50.102;20.010;2023-12-28T03:01:36;56.43;;;50.90;;
16804;SDS011;8520;50.102;20.010;2023-12-28T03:04:04;57.77;;;52.07;;
16804;SDS011;8520;50.102;20.010;2023-12-28T03:06:32;55.43;;;50.10;;
16804;SDS011;8520;50.102;20.010;2023-12-28T03:09:02;54.93;;;49.83;;
16804;SDS011;8520;50.102;20.010;2023-12-28T03:11:30;56.77;;;51.23;;
16804;SDS011;8520;50.102;20.010;2023-12-28T03:13:58;54.47;;;49.43;;
16804;SDS011;8520;50.102;20.010;2023-12-28T03:16:26;57.13;;;51.57;;
16804;SDS011;8520;50.102;20.010;2023-12-28T03:18:55;55.70;;;50.47;;
16804;SDS011;8520;50.102;20.010;2023-12-28T03:21:23;55.87;;;50.57;;
16804;SDS011;8520;50.102;20.010;2023-12-28T03:23:53;54.50;;;49.33;;
16804;SDS011;8520;50.102;20.010;2023-12-28T03:26:21;55.17;;;49.97;;
16804;SDS011;8520;50.102;20.010;2023-12-28T03:28:48;54.63;;;49.53;;
16804;SDS011;8520;50.102;20.010;2023-12-28T03:31:16;54.73;;;49.53;;
16804;SDS011;8520;50.102;20.010;2023-12-28T03:33:45;53.83;;;49.10;;
16804;SDS011;8520;50.102;20.010;2023-12-28T03:36:18;52.97;;;48.13;;
16804;SDS011;8520;50.102;20.010;2023-12-28T03:38:47;53.77;;;48.53;;
16804;SDS011;8520;50.102;20.010;2023-12-28T03:41:17;53.70;;;48.90;;
16804;SDS011;8520;50.102;20.010;2023-12-28T03:43:45;52.00;;;47.23;;
16804;SDS011;8520;50.102;20.010;2023-12-28T03:46:13;55.00;;;49.80;;
16804;SDS011;8520;50.102;20.010;2023-12-28T03:48:41;53.60;;;48.90;;
16804;SDS011;8520;50.102;20.010;2023-12-28T03:51:13;54.10;;;49.17;;
16804;SDS011;8520;50.102;20.010;2023-12-28T03:53:42;54.97;;;49.80;;
16804;SDS011;8520;50.102;20.010;2023-12-28T03:56:17;54.57;;;49.57;;
16804;SDS011;8520;50.102;20.010;2023-12-28T03:58:45;53.67;;;48.77;;
16804;SDS011;8520;50.102;20.010;2023-12-28T04:01:12;54.33;;;49.30;;
16804;SDS011;8520;50.102;20.010;2023-12-28T04:03:40;54.70;;;49.57;;
16804;SDS011;8520;50.102;20.010;2023-12-28T04:06:08;54.27;;;49.20;;
16804;SDS011;8520;50.102;20.010;2023-12-28T04:08:36;52.83;;;48.17;;
16804;SDS011;8520;50.102;20.010;2023-12-28T04:11:05;53.57;;;48.73;;
16804;SDS011;8520;50.102;20.010;2023-12-28T04:13:34;54.60;;;49.50;;
16804;SDS011;8520;50.102;20.010;2023-12-28T04:16:02;53.10;;;48.07;;
16804;SDS011;8520;50.102;20.010;2023-12-28T04:18:31;53.00;;;48.10;;
16804;SDS011;8520;50.102;20.010;2023-12-28T04:20:59;54.07;;;49.43;;
16804;SDS011;8520;50.102;20.010;2023-12-28T04:23:27;53.37;;;48.37;;
16804;SDS011;8520;50.102;20.010;2023-12-28T04:25:55;54.47;;;49.37;;
16804;SDS011;8520;50.102;20.010;2023-12-28T04:28:25;55.70;;;50.50;;
16804;SDS011;8520;50.102;20.010;2023-12-28T04:30:53;58.10;;;52.50;;
16804;SDS011;8520;50.102;20.010;2023-12-28T04:33:21;57.70;;;52.40;;
16804;SDS011;8520;50.102;20.010;2023-12-28T04:35:49;57.77;;;52.47;;
16804;SDS011;8520;50.102;20.010;2023-12-28T04:38:17;59.97;;;54.40;;
16804;SDS011;8520;50.102;20.010;2023-12-28T04:40:45;60.73;;;55.03;;
16804;SDS011;8520;50.102;20.010;2023-12-28T04:43:13;58.40;;;53.00;;
16804;SDS011;8520;50.102;20.010;2023-12-28T04:45:42;60.47;;;54.57;;
16804;SDS011;8520;50.102;20.010;2023-12-28T04:48:10;60.60;;;54.90;;
16804;SDS011;8520;50.102;20.010;2023-12-28T04:50:38;60.07;;;54.73;;
16804;SDS011;8520;50.102;20.010;2023-12-28T04:53:06;60.80;;;55.20;;
16804;SDS011;8520;50.102;20.010;2023-12-28T04:55:34;61.33;;;55.63;;
16804;SDS011;8520;50.102;20.010;2023-12-28T04:58:03;61.40;;;55.60;;
16804;SDS011;8520;50.102;20.010;2023-12-28T05:00:31;60.50;;;55.10;;
16804;SDS011;8520;50.102;20.010;2023-12-28T05:03:00;60.83;;;55.53;;
16804;SDS011;8520;50.102;20.010;2023-12-28T05:05:28;60.90;;;55.43;;
16804;SDS011;8520;50.102;20.010;2023-12-28T05:07:56;59.63;;;54.50;;
16804;SDS011;8520;50.102;20.010;2023-12-28T05:10:26;60.13;;;54.83;;
16804;SDS011;8520;50.102;20.010;2023-12-28T05:12:54;58.70;;;53.47;;
16804;SDS011;8520;50.102;20.010;2023-12-28T05:15:25;58.73;;;53.60;;
16804;SDS011;8520;50.102;20.010;2023-12-28T05:17:53;58.07;;;52.77;;
16804;SDS011;8520;50.102;20.010;2023-12-28T05:20:23;57.17;;;51.97;;
16804;SDS011;8520;50.102;20.010;2023-12-28T05:22:50;56.50;;;51.47;;
16804;SDS011;8520;50.102;20.010;2023-12-28T05:25:18;54.93;;;50.13;;
16804;SDS011;8520;50.102;20.010;2023-12-28T05:27:46;55.10;;;50.30;;
16804;SDS011;8520;50.102;20.010;2023-12-28T05:30:14;55.33;;;50.83;;
16804;SDS011;8520;50.102;20.010;2023-12-28T05:32:42;57.17;;;52.33;;
16804;SDS011;8520;50.102;20.010;2023-12-28T05:35:10;56.43;;;51.93;;
16804;SDS011;8520;50.102;20.010;2023-12-28T05:37:40;57.13;;;52.37;;
16804;SDS011;8520;50.102;20.010;2023-12-28T05:40:08;57.50;;;52.33;;
16804;SDS011;8520;50.102;20.010;2023-12-28T05:42:36;49.27;;;45.13;;
16804;SDS011;8520;50.102;20.010;2023-12-28T05:45:05;50.37;;;46.37;;
16804;SDS011;8520;50.102;20.010;2023-12-28T05:47:33;52.90;;;48.30;;
16804;SDS011;8520;50.102;20.010;2023-12-28T05:50:01;52.43;;;47.80;;
16804;SDS011;8520;50.102;20.010;2023-12-28T05:52:30;52.17;;;47.60;;
16804;SDS011;8520;50.102;20.010;2023-12-28T05:54:59;50.13;;;45.73;;
16804;SDS011;8520;50.102;20.010;2023-12-28T05:57:27;52.63;;;47.83;;
16804;SDS011;8520;50.102;20.010;2023-12-28T05:59:57;49.77;;;45.43;;
16804;SDS011;8520;50.102;20.010;2023-12-28T06:02:25;49.70;;;45.17;;
16804;SDS011;8520;50.102;20.010;2023-12-28T06:04:53;48.70;;;44.57;;
16804;SDS011;8520;50.102;20.010;2023-12-28T06:07:21;48.07;;;43.87;;
16804;SDS011;8520;50.102;20.010;2023-12-28T06:09:49;47.10;;;42.93;;
16804;SDS011;8520;50.102;20.010;2023-12-28T06:12:19;44.37;;;40.57;;
16804;SDS011;8520;50.102;20.010;2023-12-28T06:14:47;44.80;;;40.90;;
16804;SDS011;8520;50.102;20.010;2023-12-28T06:17:15;44.97;;;41.30;;
16804;SDS011;8520;50.102;20.010;2023-12-28T06:19:45;44.33;;;40.37;;
16804;SDS011;8520;50.102;20.010;2023-12-28T06:22:12;43.83;;;40.07;;
16804;SDS011;8520;50.102;20.010;2023-12-28T06:24:40;46.53;;;42.30;;
16804;SDS011;8520;50.102;20.010;2023-12-28T06:27:08;43.63;;;39.57;;
16804;SDS011;8520;50.102;20.010;2023-12-28T06:29:37;41.57;;;37.87;;
16804;SDS011;8520;50.102;20.010;2023-12-28T06:32:05;41.20;;;37.40;;
16804;SDS011;8520;50.102;20.010;2023-12-28T06:34:33;43.57;;;39.70;;
16804;SDS011;8520;50.102;20.010;2023-12-28T06:37:02;44.40;;;40.40;;
16804;SDS011;8520;50.102;20.010;2023-12-28T06:39:30;41.97;;;38.37;;
16804;SDS011;8520;50.102;20.010;2023-12-28T06:41:58;41.70;;;38.30;;
16804;SDS011;8520;50.102;20.010;2023-12-28T06:44:26;43.20;;;39.70;;
16804;SDS011;8520;50.102;20.010;2023-12-28T06:46:55;45.13;;;41.57;;
16804;SDS011;8520;50.102;20.010;2023-12-28T06:49:24;44.80;;;41.10;;
16804;SDS011;8520;50.102;20.010;2023-12-28T06:51:53;43.70;;;40.20;;
16804;SDS011;8520;50.102;20.010;2023-12-28T06:54:21;42.73;;;39.33;;
16804;SDS011;8520;50.102;20.010;2023-12-28T06:56:48;42.77;;;39.47;;
16804;SDS011;8520;50.102;20.010;2023-12-28T06:59:18;43.17;;;39.67;;
16804;SDS011;8520;50.102;20.010;2023-12-28T07:01:46;42.37;;;38.93;;
16804;SDS011;8520;50.102;20.010;2023-12-28T07:04:16;42.83;;;39.33;;
16804;SDS011;8520;50.102;20.010;2023-12-28T07:06:44;42.77;;;39.37;;
16804;SDS011;8520;50.102;20.010;2023-12-28T07:09:12;42.13;;;38.60;;
16804;SDS011;8520;50.102;20.010;2023-12-28T07:11:40;46.13;;;41.73;;
16804;SDS011;8520;50.102;20.010;2023-12-28T07:14:08;43.60;;;39.53;;
16804;SDS011;8520;50.102;20.010;2023-12-28T07:16:36;41.37;;;37.47;;
16804;SDS011;8520;50.102;20.010;2023-12-28T07:19:04;41.67;;;37.43;;
16804;SDS011;8520;50.102;20.010;2023-12-28T07:21:33;40.23;;;36.47;;
16804;SDS011;8520;50.102;20.010;2023-12-28T07:24:01;42.90;;;39.00;;
16804;SDS011;8520;50.102;20.010;2023-12-28T07:26:29;42.20;;;38.50;;
16804;SDS011;8520;50.102;20.010;2023-12-28T07:28:57;44.20;;;40.57;;
16804;SDS011;8520;50.102;20.010;2023-12-28T07:31:25;46.20;;;42.33;;
16804;SDS011;8520;50.102;20.010;2023-12-28T07:33:54;46.07;;;42.17;;
16804;SDS011;8520;50.102;20.010;2023-12-28T07:36:22;47.10;;;43.07;;
16804;SDS011;8520;50.102;20.010;2023-12-28T07:38:51;45.33;;;41.40;;
16804;SDS011;8520;50.102;20.010;2023-12-28T07:41:19;47.10;;;43.03;;
16804;SDS011;8520;50.102;20.010;2023-12-28T07:43:47;43.93;;;40.20;;
16804;SDS011;8520;50.102;20.010;2023-12-28T07:46:15;44.37;;;40.33;;
16804;SDS011;8520;50.102;20.010;2023-12-28T07:48:43;41.50;;;37.80;;
16804;SDS011;8520;50.102;20.010;2023-12-28T07:51:12;41.50;;;37.90;;
16804;SDS011;8520;50.102;20.010;2023-12-28T07:53:40;42.00;;;38.27;;
16804;SDS011;8520;50.102;20.010;2023-12-28T07:56:10;44.07;;;40.20;;
16804;SDS011;8520;50.102;20.010;2023-12-28T07:58:38;43.87;;;40.17;;
16804;SDS011;8520;50.102;20.010;2023-12-28T08:01:09;41.77;;;38.23;;
16804;SDS011;8520;50.102;20.010;2023-12-28T08:03:37;41.67;;;38.23;;
16804;SDS011;8520;50.102;20.010;2023-12-28T08:06:05;40.53;;;37.23;;
16804;SDS011;8520;50.102;20.010;2023-12-28T08:08:33;38.63;;;35.63;;
16804;SDS011;8520;50.102;20.010;2023-12-28T08:11:01;39.23;;;36.13;;
16804;SDS011;8520;50.102;20.010;2023-12-28T08:13:30;37.20;;;34.13;;
16804;SDS011;8520;50.102;20.010;2023-12-28T08:15:58;37.37;;;34.17;;
16804;SDS011;8520;50.102;20.010;2023-12-28T08:18:26;35.37;;;32.57;;
16804;SDS011;8520;50.102;20.010;2023-12-28T08:20:55;33.43;;;30.80;;
16804;SDS011;8520;50.102;20.010;2023-12-28T08:23:23;32.37;;;29.73;;
16804;SDS011;8520;50.102;20.010;2023-12-28T08:25:51;30.73;;;28.10;;
16804;SDS011;8520;50.102;20.010;2023-12-28T08:28:19;29.27;;;26.87;;
16804;SDS011;8520;50.102;20.010;2023-12-28T08:30:48;28.30;;;25.90;;
16804;SDS011;8520;50.102;20.010;2023-12-28T08:33:16;29.20;;;26.57;;
16804;SDS011;8520;50.102;20.010;2023-12-28T08:35:44;27.67;;;25.27;;
16804;SDS011;8520;50.102;20.010;2023-12-28T08:38:12;28.17;;;25.30;;
16804;SDS011;8520;50.102;20.010;2023-12-28T08:40:40;27.93;;;25.53;;
16804;SDS011;8520;50.102;20.010;2023-12-28T08:43:08;27.37;;;24.97;;
16804;SDS011;8520;50.102;20.010;2023-12-28T08:45:36;28.70;;;26.10;;
16804;SDS011;8520;50.102;20.010;2023-12-28T08:48:05;27.13;;;24.60;;
16804;SDS011;8520;50.102;20.010;2023-12-28T08:50:34;26.70;;;24.40;;
16804;SDS011;8520;50.102;20.010;2023-12-28T08:53:02;27.10;;;24.73;;
16804;SDS011;8520;50.102;20.010;2023-12-28T08:55:29;27.97;;;25.43;;
16804;SDS011;8520;50.102;20.010;2023-12-28T08:57:58;26.80;;;24.37;;
16804;SDS011;8520;50.102;20.010;2023-12-28T09:00:26;26.10;;;24.03;;
16804;SDS011;8520;50.102;20.010;2023-12-28T09:02:56;24.77;;;22.63;;
16804;SDS011;8520;50.102;20.010;2023-12-28T09:05:25;24.77;;;22.83;;
16804;SDS011;8520;50.102;20.010;2023-12-28T09:07:53;25.70;;;23.63;;
16804;SDS011;8520;50.102;20.010;2023-12-28T09:10:22;26.20;;;24.03;;
16804;SDS011;8520;50.102;20.010;2023-12-28T09:12:50;26.73;;;24.23;;
16804;SDS011;8520;50.102;20.010;2023-12-28T09:15:18;25.40;;;23.23;;
16804;SDS011;8520;50.102;20.010;2023-12-28T09:17:46;24.50;;;22.30;;
16804;SDS011;8520;50.102;20.010;2023-12-28T09:20:14;23.80;;;21.80;;
16804;SDS011;8520;50.102;20.010;2023-12-28T09:22:43;24.30;;;22.10;;
16804;SDS011;8520;50.102;20.010;2023-12-28T09:25:12;23.20;;;21.07;;
16804;SDS011;8520;50.102;20.010;2023-12-28T09:27:40;23.50;;;21.33;;
16804;SDS011;8520;50.102;20.010;2023-12-28T09:30:08;22.63;;;20.63;;
16804;SDS011;8520;50.102;20.010;2023-12-28T09:32:36;20.73;;;19.03;;
16804;SDS011;8520;50.102;20.010;2023-12-28T09:35:05;21.90;;;20.03;;
16804;SDS011;8520;50.102;20.010;2023-12-28T09:37:33;20.83;;;19.03;;
16804;SDS011;8520;50.102;20.010;2023-12-28T09:40:02;21.27;;;19.37;;
16804;SDS011;8520;50.102;20.010;2023-12-28T09:42:32;20.83;;;18.93;;
16804;SDS011;8520;50.102;20.010;2023-12-28T09:45:02;20.90;;;18.97;;
16804;SDS011;8520;50.102;20.010;2023-12-28T09:47:31;20.07;;;18.37;;
16804;SDS011;8520;50.102;20.010;2023-12-28T09:49:59;20.07;;;18.37;;
16804;SDS011;8520;50.102;20.010;2023-12-28T09:52:27;20.20;;;18.37;;
16804;SDS011;8520;50.102;20.010;2023-12-28T09:54:55;20.03;;;18.23;;
16804;SDS011;8520;50.102;20.010;2023-12-28T09:57:25;19.57;;;17.60;;
16804;SDS011;8520;50.102;20.010;2023-12-28T09:59:53;20.20;;;18.27;;
16804;SDS011;8520;50.102;20.010;2023-12-28T10:02:22;24.73;;;19.00;;
16804;SDS011;8520;50.102;20.010;2023-12-28T10:04:50;21.43;;;19.57;;
16804;SDS011;8520;50.102;20.010;2023-12-28T10:07:18;22.20;;;20.10;;
16804;SDS011;8520;50.102;20.010;2023-12-28T10:09:46;20.67;;;18.87;;
16804;SDS011;8520;50.102;20.010;2023-12-28T10:12:14;21.93;;;19.93;;
16804;SDS011;8520;50.102;20.010;2023-12-28T10:14:44;22.87;;;20.47;;
16804;SDS011;8520;50.102;20.010;2023-12-28T10:17:12;23.60;;;21.47;;
16804;SDS011;8520;50.102;20.010;2023-12-28T10:19:39;22.63;;;20.63;;
16804;SDS011;8520;50.102;20.010;2023-12-28T10:22:08;22.67;;;20.60;;
16804;SDS011;8520;50.102;20.010;2023-12-28T10:24:40;23.10;;;20.87;;
16804;SDS011;8520;50.102;20.010;2023-12-28T10:27:08;21.17;;;19.37;;
16804;SDS011;8520;50.102;20.010;2023-12-28T10:29:36;22.07;;;19.90;;
16804;SDS011;8520;50.102;20.010;2023-12-28T10:32:06;22.50;;;20.40;;
16804;SDS011;8520;50.102;20.010;2023-12-28T10:34:34;23.07;;;20.87;;
16804;SDS011;8520;50.102;20.010;2023-12-28T10:37:02;23.27;;;20.97;;
16804;SDS011;8520;50.102;20.010;2023-12-28T10:39:32;23.37;;;21.17;;
16804;SDS011;8520;50.102;20.010;2023-12-28T10:42:03;23.47;;;21.27;;
16804;SDS011;8520;50.102;20.010;2023-12-28T10:44:31;22.33;;;20.23;;
16804;SDS011;8520;50.102;20.010;2023-12-28T10:47:02;22.00;;;20.03;;
16804;SDS011;8520;50.102;20.010;2023-12-28T10:49:33;21.17;;;19.30;;
16804;SDS011;8520;50.102;20.010;2023-12-28T10:52:02;21.57;;;19.53;;
16804;SDS011;8520;50.102;20.010;2023-12-28T10:54:33;22.03;;;20.03;;
16804;SDS011;8520;50.102;20.010;2023-12-28T10:57:05;21.27;;;19.13;;
16804;SDS011;8520;50.102;20.010;2023-12-28T10:59:37;21.67;;;19.50;;
16804;SDS011;8520;50.102;20.010;2023-12-28T11:02:08;20.10;;;18.40;;
16804;SDS011;8520;50.102;20.010;2023-12-28T11:04:40;20.87;;;18.90;;
16804;SDS011;8520;50.102;20.010;2023-12-28T11:07:09;19.97;;;17.97;;
16804;SDS011;8520;50.102;20.010;2023-12-28T11:09:38;19.90;;;18.00;;
16804;SDS011;8520;50.102;20.010;2023-12-28T11:12:08;21.23;;;19.10;;
16804;SDS011;8520;50.102;20.010;2023-12-28T11:14:37;19.97;;;18.10;;
16804;SDS011;8520;50.102;20.010;2023-12-28T11:17:07;20.20;;;18.30;;
16804;SDS011;8520;50.102;20.010;2023-12-28T11:19:35;22.77;;;19.20;;
16804;SDS011;8520;50.102;20.010;2023-12-28T11:22:05;20.80;;;18.70;;
16804;SDS011;8520;50.102;20.010;2023-12-28T11:24:33;20.47;;;18.60;;
16804;SDS011;8520;50.102;20.010;2023-12-28T11:27:01;19.60;;;17.90;;
16804;SDS011;8520;50.102;20.010;2023-12-28T11:29:35;20.60;;;18.77;;
16804;SDS011;8520;50.102;20.010;2023-12-28T11:32:03;18.73;;;17.13;;
16804;SDS011;8520;50.102;20.010;2023-12-28T11:34:32;18.40;;;16.70;;
16804;SDS011;8520;50.102;20.010;2023-12-28T11:37:02;18.23;;;16.33;;
16804;SDS011;8520;50.102;20.010;2023-12-28T11:39:34;17.63;;;16.03;;
16804;SDS011;8520;50.102;20.010;2023-12-28T11:42:03;17.73;;;16.03;;
16804;SDS011;8520;50.102;20.010;2023-12-28T11:44:36;17.50;;;15.90;;
16804;SDS011;8520;50.102;20.010;2023-12-28T11:47:10;17.60;;;16.00;;
16804;SDS011;8520;50.102;20.010;2023-12-28T11:49:39;17.13;;;15.53;;
16804;SDS011;8520;50.102;20.010;2023-12-28T11:52:08;17.57;;;15.83;;
16804;SDS011;8520;50.102;20.010;2023-12-28T11:54:39;16.77;;;15.27;;
16804;SDS011;8520;50.102;20.010;2023-12-28T11:57:16;17.30;;;15.67;;
16804;SDS011;8520;50.102;20.010;2023-12-28T11:59:44;16.67;;;15.07;;
16804;SDS011;8520;50.102;20.010;2023-12-28T12:02:13;15.87;;;14.37;;
16804;SDS011;8520;50.102;20.010;2023-12-28T12:04:41;16.20;;;14.47;;
16804;SDS011;8520;50.102;20.010;2023-12-28T12:07:09;14.63;;;13.23;;
16804;SDS011;8520;50.102;20.010;2023-12-28T12:09:38;14.67;;;13.23;;
16804;SDS011;8520;50.102;20.010;2023-12-28T12:12:06;15.07;;;13.57;;
16804;SDS011;8520;50.102;20.010;2023-12-28T12:14:34;14.90;;;13.40;;
16804;SDS011;8520;50.102;20.010;2023-12-28T12:17:03;14.18;;;12.85;;
16804;SDS011;8520;50.102;20.010;2023-12-28T12:19:31;13.70;;;12.50;;
16804;SDS011;8520;50.102;20.010;2023-12-28T12:21:59;13.57;;;12.18;;
16804;SDS011;8520;50.102;20.010;2023-12-28T12:24:28;12.95;;;11.60;;
16804;SDS011;8520;50.102;20.010;2023-12-28T12:26:57;12.18;;;11.18;;
16804;SDS011;8520;50.102;20.010;2023-12-28T12:29:29;12.18;;;11.00;;
16804;SDS011;8520;50.102;20.010;2023-12-28T12:31:57;14.02;;;11.90;;
16804;SDS011;8520;50.102;20.010;2023-12-28T12:34:25;12.27;;;11.18;;
16804;SDS011;8520;50.102;20.010;2023-12-28T12:36:55;12.20;;;10.05;;
16804;SDS011;8520;50.102;20.010;2023-12-28T12:39:25;12.38;;;11.18;;
16804;SDS011;8520;50.102;20.010;2023-12-28T12:41:53;11.93;;;10.82;;
16804;SDS011;8520;50.102;20.010;2023-12-28T12:44:25;11.98;;;10.93;;
16804;SDS011;8520;50.102;20.010;2023-12-28T12:46:57;12.77;;;11.52;;
16804;SDS011;8520;50.102;20.010;2023-12-28T12:49:26;13.35;;;11.68;;
16804;SDS011;8520;50.102;20.010;2023-12-28T12:51:55;13.25;;;12.05;;
16804;SDS011;8520;50.102;20.010;2023-12-28T12:54:26;14.23;;;12.20;;
16804;SDS011;8520;50.102;20.010;2023-12-28T12:56:55;12.95;;;11.25;;
16804;SDS011;8520;50.102;20.010;2023-12-28T12:59:25;16.02;;;11.70;;
16804;SDS011;8520;50.102;20.010;2023-12-28T13:01:53;13.45;;;12.05;;
16804;SDS011;8520;50.102;20.010;2023-12-28T13:04:21;13.52;;;12.07;;
16804;SDS011;8520;50.102;20.010;2023-12-28T13:06:49;13.13;;;11.77;;
16804;SDS011;8520;50.102;20.010;2023-12-28T13:09:17;13.88;;;12.48;;
16804;SDS011;8520;50.102;20.010;2023-12-28T13:11:45;13.73;;;11.48;;
16804;SDS011;8520;50.102;20.010;2023-12-28T13:14:17;12.65;;;11.38;;
16804;SDS011;8520;50.102;20.010;2023-12-28T13:16:46;13.05;;;11.85;;
16804;SDS011;8520;50.102;20.010;2023-12-28T13:19:14;13.10;;;11.90;;
16804;SDS011;8520;50.102;20.010;2023-12-28T13:21:43;12.85;;;11.55;;
16804;SDS011;8520;50.102;20.010;2023-12-28T13:24:11;13.43;;;12.05;;
16804;SDS011;8520;50.102;20.010;2023-12-28T13:26:39;14.20;;;12.07;;
16804;SDS011;8520;50.102;20.010;2023-12-28T13:29:06;13.20;;;12.00;;
16804;SDS011;8520;50.102;20.010;2023-12-28T13:31:34;13.23;;;11.75;;
16804;SDS011;8520;50.102;20.010;2023-12-28T13:34:04;12.10;;;10.95;;
16804;SDS011;8520;50.102;20.010;2023-12-28T13:36:32;12.13;;;11.13;;
16804;SDS011;8520;50.102;20.010;2023-12-28T13:39:00;13.10;;;11.88;;
16804;SDS011;8520;50.102;20.010;2023-12-28T13:41:28;13.93;;;12.18;;
16804;SDS011;8520;50.102;20.010;2023-12-28T13:43:58;12.60;;;11.30;;
16804;SDS011;8520;50.102;20.010;2023-12-28T13:46:30;11.60;;;10.50;;
16804;SDS011;8520;50.102;20.010;2023-12-28T13:48:59;12.85;;;11.40;;
16804;SDS011;8520;50.102;20.010;2023-12-28T13:51:30;13.45;;;11.98;;
16804;SDS011;8520;50.102;20.010;2023-12-28T13:53:58;12.75;;;11.40;;
16804;SDS011;8520;50.102;20.010;2023-12-28T13:56:28;12.55;;;11.40;;
16804;SDS011;8520;50.102;20.010;2023-12-28T13:58:56;13.73;;;11.18;;
16804;SDS011;8520;50.102;20.010;2023-12-28T14:01:24;12.65;;;11.32;;
16804;SDS011;8520;50.102;20.010;2023-12-28T14:03:53;12.85;;;11.50;;
16804;SDS011;8520;50.102;20.010;2023-12-28T14:06:21;12.60;;;11.40;;
16804;SDS011;8520;50.102;20.010;2023-12-28T14:08:51;12.25;;;11.15;;
16804;SDS011;8520;50.102;20.010;2023-12-28T14:11:19;13.20;;;12.00;;
16804;SDS011;8520;50.102;20.010;2023-12-28T14:13:47;12.65;;;10.75;;
16804;SDS011;8520;50.102;20.010;2023-12-28T14:16:14;12.93;;;11.53;;
16804;SDS011;8520;50.102;20.010;2023-12-28T14:18:43;12.20;;;11.00;;
16804;SDS011;8520;50.102;20.010;2023-12-28T14:21:11;13.93;;;11.40;;
16804;SDS011;8520;50.102;20.010;2023-12-28T14:23:39;12.23;;;11.03;;
16804;SDS011;8520;50.102;20.010;2023-12-28T14:26:11;12.33;;;10.73;;
16804;SDS011;8520;50.102;20.010;2023-12-28T14:28:39;11.50;;;10.40;;